createdAt,value
2023-01-17T08:24:18.720Z,95416.19
2023-01-17T08:27:20.212Z,95420.13
2023-01-17T08:30:21.689Z,95412.06
2023-01-17T08:33:23.216Z,95404.91
2023-01-17T08:36:28.813Z,95400.63
2023-01-17T08:39:30.305Z,95401.50
2023-01-17T08:42:37.186Z,95408.28
2023-01-17T08:45:41.600Z,95409.28
2023-01-17T08:48:43.385Z,95402.38
2023-01-17T08:51:44.847Z,95399.78
2023-01-17T08:54:46.494Z,95407.47
2023-01-17T08:57:47.969Z,95407.56
2023-01-17T09:00:49.535Z,95404.91
2023-01-17T09:03:51.904Z,95408.06
2023-01-17T09:06:53.426Z,95410.56
2023-01-17T09:09:54.900Z,95410.94
2023-01-17T09:12:56.389Z,95418.00
2023-01-17T09:15:58.429Z,95398.09
2023-01-17T09:19:00.052Z,95434.78
2023-01-17T09:22:02.230Z,95496.28
2023-01-17T09:25:03.921Z,95589.84
2023-01-17T09:28:05.438Z,95645.88
2023-01-17T09:31:08.204Z,95672.41
2023-01-17T09:34:09.742Z,95669.03
2023-01-17T09:37:11.197Z,95672.22
2023-01-17T09:40:14.805Z,95672.69
2023-01-17T09:43:43.878Z,95670.06
2023-01-17T09:46:46.586Z,95663.28
2023-01-17T09:49:48.190Z,95673.53
2023-01-17T09:52:49.769Z,95671.22
2023-01-17T09:56:10.965Z,95667.94
2023-01-17T09:59:33.148Z,95662.16
2023-01-17T10:02:55.965Z,95655.63
2023-01-17T10:06:22.281Z,95645.31
2023-01-17T10:09:27.763Z,95647.53
2023-01-17T10:12:38.481Z,95643.97
2023-01-17T10:15:51.944Z,95636.44
2023-01-17T10:19:16.249Z,95625.09
2023-01-17T10:22:57.147Z,95625.72
2023-01-17T10:26:01.421Z,95624.66
2023-01-17T10:29:04.275Z,95618.38
2023-01-17T10:32:05.786Z,95615.22
2023-01-17T10:35:15.816Z,95604.38
2023-01-17T10:38:17.309Z,95606.22
2023-01-17T10:41:34.307Z,95588.31
2023-01-17T10:44:39.595Z,95572.59
2023-01-17T10:47:41.062Z,95560.88
2023-01-17T10:51:23.960Z,95558.72
2023-01-17T10:54:36.008Z,95559.00
2023-01-17T10:57:42.257Z,95558.09
2023-01-17T11:00:55.224Z,95559.84
2023-01-17T11:03:58.476Z,95564.16
2023-01-17T11:07:17.062Z,95550.69
2023-01-17T11:10:50.962Z,95537.63
2023-01-17T11:13:53.392Z,95545.25
2023-01-17T11:17:01.519Z,95535.19
2023-01-17T11:20:15.558Z,95518.97
2023-01-17T11:23:22.032Z,95523.19
2023-01-17T11:26:32.927Z,95520.06
2023-01-17T11:29:36.962Z,95509.09
2023-01-17T11:32:38.523Z,95503.00
2023-01-17T11:35:46.037Z,95496.19
2023-01-17T11:39:03.816Z,95483.50
2023-01-17T11:42:06.064Z,95465.38
2023-01-17T11:45:24.283Z,95455.66
2023-01-17T11:48:25.757Z,95458.53
2023-01-17T11:51:29.486Z,95445.91
2023-01-17T11:54:38.377Z,95432.06
2023-01-17T11:57:39.851Z,95417.16
2023-01-17T12:00:45.963Z,95410.50
2023-01-17T12:03:59.560Z,95406.81
2023-01-17T12:07:35.081Z,95412.81
2023-01-17T12:11:07.865Z,95409.94
2023-01-17T12:14:20.148Z,95401.44
2023-01-17T12:17:44.620Z,95405.75
2023-01-17T12:21:04.774Z,95413.50
2023-01-17T12:24:25.119Z,95414.94
2023-01-17T12:28:02.331Z,95418.97
2023-01-17T12:31:29.144Z,95415.78
2023-01-17T12:34:38.788Z,95409.72
2023-01-17T12:37:44.333Z,95406.81
2023-01-17T12:40:52.211Z,95391.22
2023-01-17T12:43:55.622Z,95385.16
2023-01-17T12:47:00.904Z,95388.03
2023-01-17T12:50:07.339Z,95384.84
2023-01-17T12:53:24.580Z,95381.56
2023-01-17T12:56:42.813Z,95386.91
2023-01-17T13:00:18.005Z,95390.34
2023-01-17T13:03:38.027Z,95393.59
2023-01-17T13:07:07.463Z,95394.28
2023-01-17T13:10:21.099Z,95380.84
2023-01-17T13:13:25.542Z,95372.31
2023-01-17T13:16:50.071Z,95374.19
2023-01-17T13:20:07.652Z,95375.78
2023-01-17T13:23:30.328Z,95370.63
2023-01-17T13:26:53.141Z,95379.31
2023-01-17T13:30:23.797Z,95377.63
2023-01-17T13:33:47.325Z,95373.28
2023-01-17T13:37:07.433Z,95376.31
2023-01-17T13:40:08.752Z,95377.91
2023-01-17T13:43:14.646Z,95375.38
2023-01-17T13:46:18.380Z,95369.75
2023-01-17T13:49:21.248Z,95376.09
2023-01-17T13:52:25.603Z,95376.03
2023-01-17T13:55:44.899Z,95376.38
2023-01-17T13:58:50.283Z,95374.63
2023-01-17T14:01:51.987Z,95372.34
2023-01-17T14:05:15.064Z,95385.88
2023-01-17T14:08:17.298Z,95387.25
2023-01-17T14:11:18.754Z,95392.50
2023-01-17T14:14:43.543Z,95391.34
2023-01-17T14:17:48.941Z,95386.72
2023-01-17T14:20:50.927Z,95394.28
2023-01-17T14:24:10.617Z,95399.28
2023-01-17T14:27:15.750Z,95395.13
2023-01-17T14:30:17.577Z,95403.06
2023-01-17T14:33:20.549Z,95397.66
2023-01-17T14:36:30.768Z,95394.28
2023-01-17T14:39:42.335Z,95396.16
2023-01-17T14:42:43.852Z,95386.53
2023-01-17T14:45:45.349Z,95391.03
2023-01-17T14:48:47.693Z,95385.75
2023-01-17T14:52:02.096Z,95385.81
2023-01-17T14:55:14.544Z,95384.28
2023-01-17T14:58:36.344Z,95382.72
2023-01-17T15:01:37.993Z,95389.31
2023-01-17T15:04:40.357Z,95396.38
2023-01-17T15:07:43.144Z,95394.69
2023-01-17T15:10:51.770Z,95395.56
2023-01-17T15:13:57.294Z,95396.38
2023-01-17T15:17:21.479Z,95390.69
2023-01-17T15:20:23.696Z,95384.69
2023-01-17T15:23:26.879Z,95389.91
2023-01-17T15:26:29.915Z,95390.31
2023-01-17T15:29:32.075Z,95395.41
2023-01-17T15:32:33.593Z,95389.28
2023-01-17T15:35:35.085Z,95388.38
2023-01-17T15:38:39.293Z,95390.03
2023-01-17T15:41:40.949Z,95395.47
2023-01-17T15:44:48.578Z,95400.63
2023-01-17T15:47:50.740Z,95406.56
2023-01-17T15:50:57.882Z,95394.78
2023-01-17T15:53:59.402Z,95401.72
2023-01-17T15:57:32.528Z,95400.38
2023-01-17T16:00:38.243Z,95397.78
2023-01-17T16:03:39.749Z,95403.22
2023-01-17T16:06:45.658Z,95405.75
2023-01-17T16:09:47.708Z,95406.31
2023-01-17T16:12:50.766Z,95402.06
2023-01-17T16:15:52.529Z,95398.06
2023-01-17T16:18:58.862Z,95397.03
2023-01-17T16:22:02.784Z,95395.44
2023-01-17T16:25:12.357Z,95398.34
2023-01-17T16:28:13.831Z,95398.38
2023-01-17T16:31:15.828Z,95385.66
2023-01-17T16:34:17.368Z,95386.38
2023-01-17T16:37:20.719Z,95390.09
2023-01-17T16:40:24.831Z,95383.19
2023-01-17T16:43:26.333Z,95386.38
2023-01-17T16:46:28.956Z,95382.75
2023-01-17T16:49:31.069Z,95381.63
2023-01-17T16:52:32.552Z,95381.03
2023-01-17T16:55:34.051Z,95383.59
2023-01-17T16:58:35.551Z,95372.03
2023-01-17T17:01:39.190Z,95371.06
2023-01-17T17:04:43.777Z,95370.53
2023-01-17T17:07:46.226Z,95371.38
2023-01-17T17:10:47.681Z,95374.56
2023-01-17T17:13:49.430Z,95372.13
2023-01-17T17:16:52.144Z,95366.84
2023-01-17T17:19:53.620Z,95364.31
2023-01-17T17:22:55.079Z,95367.78
2023-01-17T17:25:56.912Z,95362.59
2023-01-17T17:28:58.423Z,95356.84
2023-01-17T17:31:59.892Z,95358.34
2023-01-17T17:35:02.572Z,95368.19
2023-01-17T17:38:06.568Z,95360.25
2023-01-17T17:41:09.721Z,95350.81
2023-01-17T17:44:11.420Z,95357.50
2023-01-17T17:47:13.003Z,95354.03
2023-01-17T17:50:14.518Z,95358.13
2023-01-17T17:53:16.012Z,95356.00
2023-01-17T17:56:17.456Z,95357.22
2023-01-17T17:59:19.605Z,95351.34
2023-01-17T18:02:21.088Z,95346.19
2023-01-17T18:05:22.539Z,95344.25
2023-01-17T18:08:24.016Z,95342.88
2023-01-17T18:11:26.103Z,95335.50
2023-01-17T18:14:27.627Z,95341.31
2023-01-17T18:17:29.149Z,95348.81
2023-01-17T18:20:30.632Z,95339.44
2023-01-17T18:23:32.093Z,95345.19
2023-01-17T18:26:58.337Z,95351.28
2023-01-17T18:29:59.807Z,95346.19
2023-01-17T18:33:01.274Z,95333.22
2023-01-17T18:36:04.684Z,95334.91
2023-01-17T18:39:20.268Z,95341.78
2023-01-17T18:42:23.451Z,95333.44
2023-01-17T18:45:24.972Z,95339.91
2023-01-17T18:48:26.444Z,95321.22
2023-01-17T18:51:29.131Z,95325.50
2023-01-17T18:54:31.883Z,95317.63
2023-01-17T18:57:33.458Z,95323.75
2023-01-17T19:00:34.909Z,95317.91
2023-01-17T19:03:36.509Z,95320.13
2023-01-17T19:06:42.413Z,95311.22
2023-01-17T19:09:44.165Z,95320.63
2023-01-17T19:12:45.648Z,95322.38
2023-01-17T19:15:47.139Z,95325.16
2023-01-17T19:18:48.613Z,95320.44
2023-01-17T19:21:51.519Z,95315.31
2023-01-17T19:24:53.107Z,95313.16
2023-01-17T19:27:54.930Z,95324.19
2023-01-17T19:31:09.965Z,95323.28
2023-01-17T19:34:13.606Z,95324.91
2023-01-17T19:37:15.133Z,95323.22
2023-01-17T19:40:18.197Z,95319.41
2023-01-17T19:43:21.016Z,95322.97
2023-01-17T19:46:23.637Z,95319.78
2023-01-17T19:49:25.108Z,95311.66
2023-01-17T19:52:26.593Z,95313.19
2023-01-17T19:55:28.064Z,95313.88
2023-01-17T19:58:30.031Z,95315.72
2023-01-17T20:01:32.338Z,95312.56
2023-01-17T20:04:33.983Z,95308.44
2023-01-17T20:07:35.487Z,95309.19
2023-01-17T20:10:36.950Z,95310.81
2023-01-17T20:13:38.549Z,95309.19
2023-01-17T20:16:40.051Z,95308.50
2023-01-17T20:19:41.672Z,95315.41
2023-01-17T20:22:43.755Z,95302.56
2023-01-17T20:25:59.014Z,95309.66
2023-01-17T20:29:01.269Z,95311.34
2023-01-17T20:32:02.941Z,95302.78
2023-01-17T20:35:04.672Z,95308.16
2023-01-17T20:38:07.532Z,95300.31
2023-01-17T20:41:13.579Z,95296.81
2023-01-17T20:44:15.346Z,95296.84
2023-01-17T20:47:16.872Z,95301.81
2023-01-17T20:50:18.411Z,95300.97
2023-01-17T20:53:21.653Z,95296.81
2023-01-17T20:56:23.272Z,95312.19
2023-01-17T20:59:25.073Z,95301.75
2023-01-17T21:02:28.343Z,95301.81
2023-01-17T21:05:29.924Z,95301.84
2023-01-17T21:08:32.196Z,95297.47
2023-01-17T21:11:37.559Z,95301.00
2023-01-17T21:14:40.573Z,95300.03
2023-01-17T21:17:44.282Z,95306.91
2023-01-17T21:20:46.267Z,95304.25
2023-01-17T21:23:47.896Z,95307.78
2023-01-17T21:26:51.370Z,95296.69
2023-01-17T21:29:55.839Z,95300.22
2023-01-17T21:32:57.337Z,95302.00
2023-01-17T21:36:07.703Z,95306.31
2023-01-17T21:39:15.700Z,95304.59
2023-01-17T21:42:17.450Z,95305.44
2023-01-17T21:45:18.924Z,95300.50
2023-01-17T21:48:20.503Z,95305.72
2023-01-17T21:51:22.044Z,95307.66
2023-01-17T21:54:43.780Z,95305.31
2023-01-17T21:58:03.667Z,95303.13
2023-01-17T22:01:15.534Z,95304.63
2023-01-17T22:04:17.076Z,95298.63
2023-01-17T22:07:18.631Z,95311.38
2023-01-17T22:10:20.091Z,95303.50
2023-01-17T22:13:21.579Z,95305.25
2023-01-17T22:16:24.155Z,95299.25
2023-01-17T22:19:25.623Z,95307.88
2023-01-17T22:22:27.100Z,95305.31
2023-01-17T22:25:28.541Z,95309.63
2023-01-17T22:28:31.931Z,95312.00
2023-01-17T22:31:33.430Z,95312.88
2023-01-17T22:34:35.420Z,95308.72
2023-01-17T22:37:36.896Z,95309.72
2023-01-17T22:40:38.392Z,95313.00
2023-01-17T22:43:41.293Z,95315.78
2023-01-17T22:46:42.878Z,95315.94
2023-01-17T22:49:44.344Z,95313.41
2023-01-17T22:52:45.821Z,95313.97
2023-01-17T22:55:47.291Z,95312.44
2023-01-17T22:58:49.072Z,95315.38
2023-01-17T23:01:50.721Z,95315.09
2023-01-17T23:04:52.202Z,95308.03
2023-01-17T23:07:53.745Z,95313.13
2023-01-17T23:11:13.424Z,95317.13
2023-01-17T23:14:23.794Z,95314.56
2023-01-17T23:17:44.123Z,95312.00
2023-01-17T23:20:45.633Z,95315.38
2023-01-17T23:23:47.131Z,95314.47
2023-01-17T23:27:08.932Z,95313.09
2023-01-17T23:30:14.829Z,95307.91
2023-01-17T23:33:16.691Z,95307.75
2023-01-17T23:36:18.155Z,95306.94
2023-01-17T23:39:19.611Z,95312.88
2023-01-17T23:42:39.924Z,95309.47
2023-01-17T23:45:41.407Z,95316.28
2023-01-17T23:48:43.073Z,95311.25
2023-01-17T23:51:44.534Z,95313.72
2023-01-17T23:54:48.440Z,95312.00
2023-01-17T23:57:51.739Z,95315.56
